Time;durP1;ratioP1;P1;durP2;ratioP2;P2;SDS_P1;SDS_P2;PMS_P1;PMS_P2;Temp;Humidity;BMP_temperature;BMP_pressure;BME280_temperature;BME280_humidity;BME280_pressure;Samples;Min_cycle;Max_cycle;Signal;HPM_P1;HPM_P2
2022/10/07 06:51:40;;;;;;;16.23;5.90;;;;;;;13.87;80.51;97414.84;2052971;27;1259217;-63
2022/10/07 06:52:42;;;;;;;17.02;6.28;;;;;;;13.99;79.83;97429.22;2097315;28;20234;-64
2022/10/07 06:53:44;;;;;;;17.77;6.00;;;;;;;14.16;79.46;97419.72;2097518;28;20256;-64
2022/10/07 06:54:45;;;;;;;15.52;6.43;;;;;;;14.14;79.68;97427.63;2083866;28;20231;-64
2022/10/07 06:55:50;;;;;;;20.52;7.15;;;;;;;14.01;79.86;97422.09;2082754;28;20208;-64
2022/10/07 06:56:51;;;;;;;17.55;6.70;;;;;;;14.16;79.53;97430.22;2076290;28;20222;-64
2022/10/07 07:10:43;;;;;;;21.70;6.60;;;;;;;14.71;77.80;97424.13;2056733;27;1505185;-63
2022/10/07 07:11:51;;;;;;;20.65;5.90;;;;;;;15.10;76.85;97430.94;2096982;28;20201;-63
2022/10/07 07:12:56;;;;;;;15.18;6.20;;;;;;;15.55;75.06;97433.06;2090827;28;20890;-64
2022/10/07 07:19:06;;;;;;;16.38;5.82;;;;;;;16.30;72.49;97428.22;2087121;28;20208;-64
2022/10/07 07:20:07;;;;;;;13.65;6.18;;;;;;;16.14;72.16;97436.97;2090555;28;20275;-66
2022/10/07 07:21:10;;;;;;;13.82;5.93;;;;;;;16.32;72.05;97423.72;2089836;28;20310;-66
2022/10/07 07:22:11;;;;;;;15.13;5.60;;;;;;;16.61;71.16;97431.78;2090513;28;20238;-66
2022/10/07 07:23:12;;;;;;;10.98;5.68;;;;;;;16.92;69.83;97427.41;2090981;28;20291;-67
2022/10/07 07:24:14;;;;;;;11.55;4.68;;;;;;;16.81;69.82;97423.56;2087591;28;20255;-66
2022/10/07 07:25:15;;;;;;;12.48;6.28;;;;;;;16.76;69.90;97424.75;2089306;28;20283;-66
2022/10/07 07:26:17;;;;;;;14.60;4.80;;;;;;;17.12;69.21;97427.09;2087705;28;20225;-66
2022/10/07 07:27:18;;;;;;;10.50;5.35;;;;;;;17.47;68.30;97418.00;2087144;28;20251;-66
2022/10/07 07:28:20;;;;;;;9.82;5.53;;;;;;;17.79;67.18;97421.31;2098776;28;20195;-66
2022/10/07 07:29:21;;;;;;;16.75;5.32;;;;;;;18.05;66.30;97421.50;2089317;28;20699;-66
2022/10/07 07:30:23;;;;;;;16.38;5.32;;;;;;;18.19;65.92;97406.59;2081377;28;20292;-66
2022/10/07 07:31:27;;;;;;;11.40;4.82;;;;;;;18.04;65.61;97417.19;2091170;28;20200;-66
2022/10/07 07:32:29;;;;;;;12.02;4.25;;;;;;;17.90;66.54;97420.69;2088636;28;20223;-66
2022/10/07 07:33:30;;;;;;;15.02;4.93;;;;;;;18.00;66.41;97415.69;2088871;28;20652;-66
2022/10/07 07:34:32;;;;;;;22.25;6.03;;;;;;;18.21;65.94;97417.94;2089256;28;20283;-66
2022/10/07 07:35:40;;;;;;;13.52;6.20;;;;;;;18.42;65.77;97427.13;2089731;28;20883;-66
2022/10/07 07:36:45;;;;;;;8.25;4.90;;;;;;;18.57;65.20;97425.28;2079115;28;20679;-66
2022/10/07 07:37:47;;;;;;;10.75;5.28;;;;;;;18.49;64.75;97424.09;2095245;28;20694;-64
2022/10/07 07:38:53;;;;;;;9.23;3.95;;;;;;;18.73;64.37;97417.19;2098214;28;20643;-64
2022/10/07 07:39:55;;;;;;;13.90;5.53;;;;;;;19.08;63.29;97429.94;2089977;28;20287;-64
2022/10/07 07:41:02;;;;;;;10.40;5.30;;;;;;;19.05;63.10;97424.81;2089618;28;20220;-64
2022/10/07 07:42:04;;;;;;;12.73;6.63;;;;;;;19.50;62.51;97410.38;2079384;28;20259;-65
2022/10/07 07:43:06;;;;;;;13.85;5.30;;;;;;;19.88;61.01;97428.09;2089917;28;20275;-64
2022/10/07 07:44:10;;;;;;;19.02;6.43;;;;;;;19.90;60.67;97427.03;2095302;28;20192;-65
2022/10/07 07:45:11;;;;;;;10.38;4.95;;;;;;;19.80;60.84;97427.75;2086567;28;20193;-65
2022/10/07 07:46:13;;;;;;;10.52;4.50;;;;;;;20.01;60.32;97413.03;2087626;28;20682;-64
2022/10/07 07:47:19;;;;;;;14.27;4.85;;;;;;;20.25;59.67;97414.84;2084410;28;20227;-65
2022/10/07 07:48:20;;;;;;;8.50;4.65;;;;;;;20.35;59.78;97421.22;2094940;28;20303;-65
2022/10/07 07:49:23;;;;;;;19.25;5.50;;;;;;;20.48;59.26;97423.84;2090898;28;20208;-65
2022/10/07 07:50:26;;;;;;;14.35;5.35;;;;;;;20.45;59.02;97426.69;2090854;28;20244;-65
2022/10/07 07:51:27;;;;;;;8.52;4.75;;;;;;;20.36;59.11;97422.06;2098599;28;20195;-66
2022/10/07 07:52:29;;;;;;;8.70;4.53;;;;;;;20.19;60.33;97415.34;2088021;28;20227;-66
2022/10/07 07:53:30;;;;;;;10.43;4.13;;;;;;;20.17;59.98;97417.22;2087946;28;20722;-67
2022/10/07 08:00:04;;;;;;;10.13;4.53;;;;;;;20.44;59.58;97422.34;2093139;28;20180;-67
2022/10/07 08:01:12;;;;;;;13.30;4.43;;;;;;;19.95;60.39;97433.78;2088840;28;20339;-67
2022/10/07 08:02:13;;;;;;;8.85;4.57;;;;;;;20.24;59.27;97418.50;2083985;28;20224;-66
2022/10/07 08:03:15;;;;;;;11.30;4.97;;;;;;;20.59;58.65;97409.75;2086800;28;20204;-67
2022/10/07 08:04:16;;;;;;;8.25;4.50;;;;;;;20.42;58.76;97399.53;2085007;28;20284;-67
2022/10/07 08:05:19;;;;;;;11.82;4.65;;;;;;;20.43;58.75;97419.81;2086560;28;20223;-66
2022/10/07 08:06:26;;;;;;;8.65;4.70;;;;;;;20.37;59.02;97421.09;2089262;28;20193;-66
2022/10/07 08:07:28;;;;;;;22.90;5.85;;;;;;;20.36;58.80;97420.25;2088190;28;20239;-64
2022/10/07 08:08:29;;;;;;;11.93;4.45;;;;;;;20.26;59.40;97410.44;2096726;28;20283;-64
2022/10/07 08:09:31;;;;;;;21.60;5.63;;;;;;;20.40;58.60;97418.22;2089911;28;20284;-64
2022/10/07 08:10:32;;;;;;;8.68;5.07;;;;;;;20.92;57.29;97413.56;2096644;28;20343;-65
2022/10/07 08:11:34;;;;;;;9.80;4.82;;;;;;;20.39;58.45;97405.91;2098097;28;20349;-64
2022/10/07 08:12:35;;;;;;;8.48;4.97;;;;;;;20.59;58.10;97417.72;2095184;28;20873;-64
2022/10/07 08:13:40;;;;;;;7.38;5.30;;;;;;;20.70;58.03;97417.81;2106181;28;20657;-64
2022/10/07 08:14:42;;;;;;;15.52;5.22;;;;;;;20.71;58.06;97411.56;2099060;28;20208;-66
2022/10/07 08:15:43;;;;;;;8.48;5.38;;;;;;;20.61;58.24;97413.16;2099526;28;20206;-66
2022/10/07 08:16:46;;;;;;;7.15;4.80;;;;;;;20.15;59.18;97409.41;2089644;28;20203;-66
2022/10/07 08:17:48;;;;;;;7.72;4.38;;;;;;;20.27;59.03;97405.00;2106430;28;20215;-66
2022/10/07 08:18:51;;;;;;;12.88;5.35;;;;;;;20.44;58.29;97413.53;2103785;28;20598;-66
2022/10/07 08:19:56;;;;;;;10.00;4.70;;;;;;;20.62;58.35;97398.94;2096295;28;20301;-66
2022/10/07 08:21:00;;;;;;;12.30;5.38;;;;;;;20.32;59.23;97402.03;2098657;28;20336;-66
2022/10/07 08:22:01;;;;;;;13.90;5.25;;;;;;;20.69;58.52;97409.94;2087223;28;20742;-66
2022/10/07 08:23:04;;;;;;;9.77;4.32;;;;;;;20.77;58.17;97404.09;2098177;28;20195;-66
2022/10/07 08:30:53;;;;;;;18.10;5.40;;;;;;;21.14;56.25;97410.16;2092770;28;20207;-66
2022/10/07 08:31:55;;;;;;;9.77;5.35;;;;;;;21.17;56.90;97401.94;2085903;28;20195;-67
2022/10/07 08:32:59;;;;;;;7.28;4.30;;;;;;;21.00;56.67;97397.06;2097326;28;20191;-66
2022/10/07 08:34:03;;;;;;;11.90;4.68;;;;;;;21.65;55.12;97400.16;2095733;28;20741;-66
2022/10/07 08:35:05;;;;;;;8.65;5.07;;;;;;;21.78;54.40;97390.22;2093618;28;20619;-66
2022/10/07 08:36:10;;;;;;;9.20;4.97;;;;;;;20.87;56.66;97381.22;2092418;28;20267;-66
2022/10/07 08:37:11;;;;;;;9.93;4.53;;;;;;;20.84;57.23;97400.88;2084076;28;20230;-66
2022/10/07 08:38:14;;;;;;;8.80;5.15;;;;;;;20.71;57.15;97382.38;2098437;28;20233;-66
2022/10/07 08:39:16;;;;;;;14.68;4.95;;;;;;;21.18;56.20;97401.00;2096056;28;20263;-66
2022/10/07 08:40:17;;;;;;;10.35;5.07;;;;;;;21.66;55.64;97407.13;2092984;28;20197;-67
2022/10/07 08:41:40;;;;;;;10.68;4.55;;;;;;;21.12;56.30;97374.06;2091916;28;20274;-66
2022/10/07 08:48:02;;;;;;;9.48;4.80;;;;;;;21.97;54.18;97404.75;2084206;28;20681;-67
2022/10/07 08:49:12;;;;;;;9.30;4.50;;;;;;;21.28;55.94;97405.59;2098878;28;20227;-66
2022/10/07 08:50:18;;;;;;;7.95;4.32;;;;;;;21.12;56.95;97397.97;2091549;28;20659;-67
2022/10/07 08:51:38;;;;;;;15.63;5.07;;;;;;;21.94;54.64;97381.91;2092674;28;20345;-66
2022/10/07 08:53:01;;;;;;;16.05;5.15;;;;;;;22.57;52.53;97397.28;2087608;28;20231;-66
2022/10/07 09:01:06;;;;;;;15.23;4.65;;;;;;;22.28;53.01;97394.31;2090618;28;20176;-67
2022/10/07 09:02:51;;;;;;;14.02;4.40;;;;;;;22.69;52.46;97383.94;2084507;28;20250;-67
2022/10/07 09:04:11;;;;;;;8.73;4.32;;;;;;;22.96;51.82;97391.47;2072100;28;20205;-67
2022/10/07 09:05:32;;;;;;;15.40;4.65;;;;;;;22.04;53.70;97389.97;2093452;28;20674;-67
2022/10/07 09:06:51;;;;;;;14.38;4.75;;;;;;;21.90;53.41;97376.94;2092318;28;20196;-66
2022/10/07 09:07:56;;;;;;;11.07;4.53;;;;;;;21.59;54.98;97395.31;2091743;28;20429;-66
2022/10/07 09:09:03;;;;;;;8.00;5.00;;;;;;;21.51;55.08;97385.25;2094265;28;20361;-66
2022/10/07 09:10:07;;;;;;;11.57;4.18;;;;;;;20.96;56.30;97390.28;2091727;28;20951;-67
2022/10/07 09:11:19;;;;;;;12.35;4.60;;;;;;;20.28;58.11;97388.16;2089475;28;20303;-67
2022/10/07 09:12:46;;;;;;;13.18;4.80;;;;;;;19.97;59.53;97371.81;2083746;28;20251;-66
2022/10/07 09:13:58;;;;;;;7.90;4.03;;;;;;;20.31;58.52;97374.66;2073248;28;20200;-64
2022/10/07 09:15:02;;;;;;;8.93;4.63;;;;;;;20.20;59.24;97374.56;2092229;28;20354;-64
2022/10/07 09:16:10;;;;;;;11.75;4.68;;;;;;;20.17;59.74;97388.91;2092739;28;20279;-65
2022/10/07 09:17:28;;;;;;;11.52;5.10;;;;;;;19.87;60.13;97392.81;2081719;28;20239;-64
2022/10/07 09:18:43;;;;;;;11.88;4.50;;;;;;;20.72;58.00;97383.19;2095957;28;20251;-65
2022/10/07 09:19:48;;;;;;;10.77;5.45;;;;;;;20.61;57.57;97388.41;2095834;28;20645;-65
2022/10/07 09:20:55;;;;;;;9.75;5.30;;;;;;;20.29;58.31;97354.50;2091314;28;20236;-65
2022/10/07 09:22:04;;;;;;;16.20;5.50;;;;;;;20.79;57.32;97384.44;2082331;28;20647;-65
2022/10/07 09:23:10;;;;;;;13.48;5.57;;;;;;;20.06;58.94;97370.28;2098477;28;20204;-65
2022/10/07 09:24:17;;;;;;;17.60;5.78;;;;;;;19.90;60.35;97371.38;2096036;28;20224;-65
2022/10/07 09:25:22;;;;;;;9.90;4.53;;;;;;;19.97;60.00;97368.28;2091257;28;20290;-65
2022/10/07 09:26:27;;;;;;;11.10;4.53;;;;;;;20.34;58.83;97370.94;2091447;28;20736;-64
2022/10/07 09:27:29;;;;;;;9.30;5.00;;;;;;;20.81;57.32;97365.75;2086646;28;20720;-65
2022/10/07 09:28:32;;;;;;;12.93;5.05;;;;;;;21.70;55.67;97371.41;2099483;28;20195;-65
2022/10/07 09:29:35;;;;;;;10.27;4.90;;;;;;;22.33;53.91;97355.75;2092173;28;20286;-65
2022/10/07 09:30:36;;;;;;;9.05;4.28;;;;;;;22.95;53.05;97365.81;2091110;28;20377;-65
2022/10/07 09:31:38;;;;;;;12.07;3.65;;;;;;;21.73;55.70;97349.06;2083932;28;20247;-65
2022/10/07 09:32:44;;;;;;;7.70;4.25;;;;;;;22.64;53.13;97373.69;2089287;28;20574;-65
2022/10/07 09:33:51;;;;;;;8.80;4.03;;;;;;;23.52;50.71;97355.69;2088068;28;20655;-66
2022/10/07 09:34:53;;;;;;;7.82;4.15;;;;;;;24.78;47.67;97361.53;2089338;28;20580;-65
2022/10/07 09:36:03;;;;;;;16.17;4.60;;;;;;;22.99;51.61;97360.09;2093253;28;20640;-66
2022/10/07 09:37:10;;;;;;;14.40;4.03;;;;;;;23.90;49.71;97362.16;2084842;28;20254;-65
2022/10/07 09:38:11;;;;;;;12.73;4.78;;;;;;;24.72;47.79;97362.09;2098001;28;20294;-65
2022/10/07 09:39:23;;;;;;;10.13;4.75;;;;;;;24.41;48.28;97359.50;2093833;28;20226;-65
2022/10/07 09:41:13;;;;;;;8.63;4.43;;;;;;;23.87;50.62;97351.75;2085146;28;20229;-66
2022/10/07 09:41:59;;;;;;;10.13;4.32;;;;;;;25.33;47.53;97352.03;2078146;28;20279;-66
2022/10/07 09:43:10;;;;;;;7.80;4.60;;;;;;;26.16;44.87;97354.88;2098513;28;20207;-65
2022/10/07 09:44:14;;;;;;;12.55;4.30;;;;;;;26.36;44.86;97352.06;2095151;28;20195;-65
2022/10/07 09:45:32;;;;;;;18.80;3.88;;;;;;;26.49;44.69;97351.72;2087155;28;20202;-65
2022/10/07 09:46:56;;;;;;;10.55;4.72;;;;;;;25.82;45.46;97347.41;2084891;28;20235;-65
2022/10/07 09:48:06;;;;;;;12.90;4.10;;;;;;;26.88;44.09;97341.56;2086001;28;20697;-65
2022/10/07 09:49:30;;;;;;;8.63;3.53;;;;;;;25.97;45.25;97353.09;2086265;28;20276;-65
2022/10/07 09:50:40;;;;;;;7.10;4.22;;;;;;;24.26;48.63;97353.72;2097513;28;20196;-65
2022/10/07 09:52:02;;;;;;;16.15;4.55;;;;;;;23.70;50.19;97347.91;2083653;28;20227;-65
2022/10/07 09:53:20;;;;;;;11.13;4.30;;;;;;;25.40;46.57;97346.00;2094147;28;20248;-65
2022/10/07 09:54:26;;;;;;;13.50;4.68;;;;;;;25.49;45.79;97354.97;2093438;28;20241;-66
2022/10/07 09:55:42;;;;;;;12.63;4.25;;;;;;;25.89;45.23;97353.84;2091203;28;20200;-66
2022/10/07 09:56:46;;;;;;;11.65;3.67;;;;;;;24.69;47.08;97351.69;2074702;28;20228;-66
2022/10/07 09:58:02;;;;;;;18.65;4.35;;;;;;;26.30;45.32;97352.69;2078657;28;20232;-66
2022/10/07 09:59:22;;;;;;;12.00;3.90;;;;;;;26.06;45.18;97340.72;2090952;28;20241;-65
2022/10/07 10:00:25;;;;;;;14.43;4.18;;;;;;;26.40;44.86;97346.25;2092962;28;20378;-66
2022/10/07 10:01:26;;;;;;;10.10;3.15;;;;;;;26.41;44.29;97344.44;2091154;28;20228;-66
2022/10/07 10:02:29;;;;;;;13.73;4.78;;;;;;;25.29;45.64;97339.97;2084558;28;20247;-66
2022/10/07 10:03:33;;;;;;;11.80;4.55;;;;;;;25.63;44.98;97342.97;2093920;28;20282;-66
2022/10/07 10:04:38;;;;;;;9.02;3.72;;;;;;;25.86;44.71;97347.94;2093053;28;20279;-66
2022/10/07 10:05:52;;;;;;;14.85;4.38;;;;;;;25.67;45.25;97348.88;2092699;28;20227;-66
2022/10/07 10:06:57;;;;;;;6.72;4.10;;;;;;;26.13;44.16;97339.13;2081334;28;20239;-66
2022/10/07 10:08:03;;;;;;;9.52;3.80;;;;;;;26.73;44.01;97343.94;2097089;28;20325;-66
2022/10/07 10:09:10;;;;;;;10.32;4.78;;;;;;;26.43;43.94;97341.59;2094128;28;20191;-66
2022/10/07 10:10:20;;;;;;;7.75;4.55;;;;;;;27.09;42.91;97345.72;2090077;28;20232;-66
2022/10/07 10:11:29;;;;;;;11.23;4.05;;;;;;;27.63;42.60;97350.13;2089391;28;20196;-66
2022/10/07 10:12:36;;;;;;;9.95;3.92;;;;;;;28.25;40.80;97347.25;2089982;28;20223;-66
2022/10/07 10:13:43;;;;;;;8.45;3.70;;;;;;;28.24;40.60;97344.72;2096660;28;20195;-66
2022/10/07 10:14:57;;;;;;;10.93;4.53;;;;;;;26.26;43.64;97337.91;2088910;28;20200;-66
2022/10/07 10:15:59;;;;;;;8.02;4.45;;;;;;;26.30;44.30;97339.31;2098167;28;20199;-66
2022/10/07 10:17:03;;;;;;;12.10;3.92;;;;;;;26.36;44.42;97314.59;2088565;28;20223;-65
2022/10/07 10:18:32;;;;;;;6.00;3.75;;;;;;;25.42;46.28;97335.19;2088236;28;20234;-66
2022/10/07 10:19:33;;;;;;;11.88;4.15;;;;;;;24.22;48.75;97320.28;2090855;28;20643;-65
2022/10/07 10:20:42;;;;;;;10.73;4.10;;;;;;;24.44;48.40;97329.84;2092446;28;20192;-66
2022/10/07 10:21:50;;;;;;;15.00;4.13;;;;;;;23.88;49.92;97333.94;2084150;28;20199;-66
2022/10/07 10:22:52;;;;;;;6.93;3.65;;;;;;;24.36;48.35;97329.72;2091046;28;20266;-67
2022/10/07 10:24:14;;;;;;;13.73;4.57;;;;;;;23.59;49.90;97329.31;2089655;28;20777;-66
2022/10/07 10:26:55;;;;;;;19.88;4.68;;;;;;;25.04;47.56;97331.56;2081920;28;20291;-65
2022/10/07 10:28:02;;;;;;;10.98;4.32;;;;;;;24.75;48.03;97327.09;2101903;28;20654;-65
2022/10/07 10:29:22;;;;;;;9.45;4.10;;;;;;;23.54;49.98;97328.88;2097617;28;20287;-66
2022/10/07 10:30:24;;;;;;;15.93;4.50;;;;;;;23.32;50.81;97322.75;2089602;28;20286;-66
2022/10/07 10:31:57;;;;;;;16.23;4.88;;;;;;;22.57;52.71;97317.44;2087635;28;20256;-65
2022/10/07 10:33:31;;;;;;;12.90;4.60;;;;;;;22.17;54.14;97323.38;2089164;28;20795;-65
2022/10/07 10:35:11;;;;;;;12.23;4.80;;;;;;;21.96;54.76;97323.28;2092426;28;20199;-65
2022/10/07 10:36:22;;;;;;;11.57;5.22;;;;;;;22.01;54.82;97315.78;2090422;28;20224;-66
2022/10/07 10:37:36;;;;;;;10.20;4.80;;;;;;;21.91;54.69;97312.19;2086945;28;20313;-65
2022/10/07 10:38:49;;;;;;;8.48;5.65;;;;;;;21.61;55.99;97303.88;2099230;28;20203;-66
2022/10/07 10:39:56;;;;;;;12.43;5.57;;;;;;;21.99;55.15;97310.59;2093070;28;20227;-66
2022/10/07 10:47:47;;;;;;;8.00;4.00;;;;;;;23.79;50.92;97301.78;2089742;28;20223;-66
2022/10/07 10:49:09;;;;;;;15.20;4.82;;;;;;;25.53;47.45;97297.56;2098141;28;20286;-66
2022/10/07 10:50:26;;;;;;;19.48;4.85;;;;;;;26.43;45.50;97301.44;2091122;28;20230;-66
2022/10/07 10:52:09;;;;;;;10.32;3.95;;;;;;;26.79;45.17;97293.41;2090215;28;20664;-66
2022/10/07 11:00:11;;;;;;;14.13;5.30;;;;;;;21.48;56.47;97277.41;2088079;28;20320;-66
2022/10/07 11:01:35;;;;;;;9.32;4.40;;;;;;;21.37;57.57;97280.91;2098460;28;20188;-66
2022/10/07 11:02:37;;;;;;;11.38;4.80;;;;;;;21.87;56.29;97282.34;2085172;28;20242;-66
2022/10/07 11:04:13;;;;;;;17.38;4.82;;;;;;;21.77;56.19;97282.22;2098879;28;20252;-66
2022/10/07 11:17:06;;;;;;;10.88;5.10;;;;;;;21.00;57.65;97262.53;2082866;28;20259;-67
2022/10/07 11:18:17;;;;;;;7.47;4.57;;;;;;;21.36;57.15;97217.28;2083641;28;20255;-67
2022/10/07 11:19:21;;;;;;;9.20;4.43;;;;;;;22.23;55.68;97261.69;2086208;28;20340;-67
2022/10/07 11:20:26;;;;;;;15.40;4.90;;;;;;;22.18;55.18;97259.41;2088975;28;20239;-66
2022/10/07 11:21:39;;;;;;;17.30;5.25;;;;;;;21.08;57.40;97259.28;2088269;28;20683;-67
2022/10/07 11:22:52;;;;;;;18.80;4.72;;;;;;;21.12;58.42;97259.91;2088529;28;20239;-67
2022/10/07 11:24:03;;;;;;;9.73;5.03;;;;;;;22.00;56.78;97248.47;2084292;28;20243;-67
2022/10/07 11:25:23;;;;;;;8.95;3.85;;;;;;;23.14;54.16;97242.59;2090291;28;20676;-67
2022/10/07 11:26:32;;;;;;;13.48;4.68;;;;;;;23.33;53.08;97251.69;2090312;28;20587;-66
2022/10/07 11:27:35;;;;;;;9.63;3.97;;;;;;;23.33;53.37;97246.34;2085311;28;20238;-66
2022/10/07 11:28:40;;;;;;;11.15;4.15;;;;;;;23.20;52.68;97227.91;2097936;28;20245;-66
2022/10/07 11:29:48;;;;;;;16.90;4.70;;;;;;;21.66;55.01;97245.91;2088241;28;20197;-67
2022/10/07 11:31:00;;;;;;;9.90;4.93;;;;;;;21.73;55.03;97234.78;2087638;28;20547;-67
2022/10/07 11:32:13;;;;;;;11.23;4.80;;;;;;;20.33;58.98;97228.72;2072621;28;20232;-66
2022/10/07 11:33:22;;;;;;;10.90;5.18;;;;;;;19.69;60.69;97237.75;2092723;28;20287;-66
2022/10/07 11:34:33;;;;;;;11.52;5.28;;;;;;;20.81;58.80;97219.78;2089174;28;20223;-67
2022/10/07 11:35:42;;;;;;;18.45;4.60;;;;;;;21.48;58.17;97223.41;2090500;28;20243;-66
2022/10/07 11:36:52;;;;;;;9.90;4.45;;;;;;;21.70;57.63;97233.22;2081422;28;20236;-66
2022/10/07 11:38:05;;;;;;;8.52;3.90;;;;;;;21.90;56.59;97226.25;2097889;28;20298;-66
2022/10/07 11:39:07;;;;;;;11.98;4.53;;;;;;;22.17;55.38;97232.97;2095993;28;20745;-66
2022/10/07 11:40:08;;;;;;;9.50;4.45;;;;;;;21.65;56.13;97214.97;2094100;28;20200;-65
2022/10/07 11:41:32;;;;;;;9.00;5.70;;;;;;;21.59;56.81;97231.41;2094176;28;20220;-65
2022/10/07 11:42:41;;;;;;;25.15;15.25;;;;;;;21.93;55.34;97226.03;2086616;28;20250;-65
2022/10/07 11:43:48;;;;;;;64.50;37.40;;;;;;;22.54;54.25;97226.38;2097340;28;20641;-65
2022/10/07 11:45:06;;;;;;;21.25;8.80;;;;;;;22.77;52.96;97227.94;2089304;28;20196;-66
2022/10/07 11:46:23;;;;;;;10.07;4.85;;;;;;;22.25;55.18;97227.00;2090311;28;20198;-66
2022/10/07 11:47:50;;;;;;;14.05;5.05;;;;;;;22.69;54.52;97218.91;2084501;28;20230;-66
2022/10/07 11:49:09;;;;;;;12.35;5.05;;;;;;;22.30;55.89;97217.66;2095101;28;20720;-66
2022/10/07 11:50:36;;;;;;;11.68;4.97;;;;;;;22.65;54.67;97215.66;2087994;28;20295;-67
2022/10/07 11:51:56;;;;;;;11.85;5.78;;;;;;;22.76;54.10;97218.25;2081634;28;20287;-66
2022/10/07 11:59:50;;;;;;;7.75;4.90;;;;;;;21.76;57.21;97211.44;2090292;28;20184;-66
2022/10/07 12:01:24;;;;;;;10.90;5.18;;;;;;;22.37;54.75;97209.19;2091730;28;20228;-66
2022/10/07 12:02:27;;;;;;;12.90;5.00;;;;;;;22.78;53.70;97210.19;2087167;28;20261;-66
2022/10/07 12:03:32;;;;;;;11.40;5.30;;;;;;;22.96;53.31;97194.44;2099473;28;20227;-66
2022/10/07 12:04:36;;;;;;;15.60;5.32;;;;;;;22.79;54.35;97190.53;2095906;28;20192;-66
2022/10/07 12:05:37;;;;;;;15.48;6.00;;;;;;;23.67;52.45;97195.38;2094637;28;20271;-65
2022/10/07 12:06:38;;;;;;;10.52;5.18;;;;;;;23.96;51.71;97188.28;2084943;28;20231;-66
2022/10/07 12:07:59;;;;;;;12.63;5.13;;;;;;;23.53;52.57;97197.47;2092066;28;20653;-66
2022/10/07 12:09:40;;;;;;;9.18;5.35;;;;;;;23.11;53.31;97192.25;2093293;28;20203;-66
2022/10/07 12:10:41;;;;;;;8.18;5.15;;;;;;;22.81;53.98;97193.94;2090524;28;20288;-66
2022/10/07 12:11:46;;;;;;;9.27;5.45;;;;;;;22.02;55.62;97189.84;2090031;28;20208;-66
2022/10/07 12:12:56;;;;;;;14.75;5.70;;;;;;;21.99;55.97;97190.09;2086784;28;20241;-65
2022/10/07 12:14:31;;;;;;;11.70;5.60;;;;;;;22.65;54.69;97183.75;2087888;28;20201;-65
2022/10/07 12:15:43;;;;;;;9.88;5.80;;;;;;;23.64;52.57;97177.84;2093544;28;20609;-65
2022/10/07 12:16:54;;;;;;;16.85;5.63;;;;;;;23.15;53.09;97183.88;2083930;28;20232;-66
2022/10/07 12:18:16;;;;;;;12.93;4.95;;;;;;;23.22;53.41;97175.34;2095286;28;20355;-65
2022/10/07 12:19:18;;;;;;;12.93;4.75;;;;;;;23.58;52.18;97175.72;2082135;28;20238;-66
2022/10/07 12:20:33;;;;;;;13.38;5.57;;;;;;;22.78;54.29;97176.41;2088238;28;20228;-66
2022/10/07 12:22:03;;;;;;;13.18;4.72;;;;;;;22.05;55.83;97178.94;2087345;28;20200;-66
2022/10/07 12:23:24;;;;;;;11.32;5.55;;;;;;;22.26;55.45;97168.34;2091286;28;20698;-66
2022/10/07 12:24:27;;;;;;;11.07;5.47;;;;;;;22.04;55.85;97176.44;2093984;28;20291;-65
2022/10/07 12:25:31;;;;;;;10.38;6.60;;;;;;;22.17;54.97;97151.34;2091553;28;20193;-64
2022/10/07 12:26:32;;;;;;;11.38;5.20;;;;;;;22.52;54.26;97170.63;2093183;28;21042;-65
2022/10/07 12:27:35;;;;;;;19.77;5.30;;;;;;;22.60;54.41;97172.66;2089997;28;20223;-66
2022/10/07 12:28:40;;;;;;;18.55;7.68;;;;;;;22.33;54.31;97163.34;2100378;28;20203;-67
2022/10/07 12:29:58;;;;;;;16.40;5.47;;;;;;;21.74;56.76;97165.53;2100466;28;20227;-66
2022/10/07 12:31:21;;;;;;;13.98;5.43;;;;;;;20.59;59.20;97160.38;2090561;28;20222;-67
2022/10/07 12:32:59;;;;;;;12.27;6.13;;;;;;;19.89;61.43;97164.78;2077450;28;20232;-67
2022/10/07 12:34:03;;;;;;;11.82;5.50;;;;;;;20.09;61.45;97165.09;2092087;28;20276;-66
2022/10/07 12:35:33;;;;;;;13.68;5.10;;;;;;;20.55;60.14;97158.94;2089175;28;20296;-66
2022/10/07 12:36:38;;;;;;;14.02;5.82;;;;;;;20.17;60.89;97158.25;2087984;28;20193;-66
2022/10/07 12:37:39;;;;;;;14.77;5.50;;;;;;;20.12;61.35;97160.41;2088412;28;20238;-66
2022/10/07 12:38:40;;;;;;;16.83;6.15;;;;;;;20.22;60.80;97160.56;2094301;28;20280;-66
2022/10/07 12:39:42;;;;;;;12.88;5.60;;;;;;;20.18;61.41;97162.59;2092359;28;20279;-66
2022/10/07 12:47:28;;;;;;;10.15;5.75;;;;;;;19.26;64.20;97159.59;2087974;28;20674;-65
2022/10/07 12:48:38;;;;;;;9.90;5.45;;;;;;;19.28;63.69;97131.22;2099369;28;20229;-66
2022/10/07 12:49:50;;;;;;;11.23;6.03;;;;;;;19.71;62.71;97151.06;2090897;28;20330;-67
2022/10/07 12:50:55;;;;;;;10.38;5.65;;;;;;;19.50;62.81;97142.88;2091946;28;20288;-66
2022/10/07 12:52:02;;;;;;;9.95;6.22;;;;;;;19.54;62.78;97150.50;2085064;28;20288;-65
2022/10/07 12:53:11;;;;;;;16.42;5.95;;;;;;;19.40;64.00;97151.50;2091562;28;20701;-65
2022/10/07 12:54:19;;;;;;;10.85;5.72;;;;;;;19.42;63.77;97148.75;2090444;28;20720;-66
2022/10/07 12:55:35;;;;;;;17.33;6.25;;;;;;;19.72;62.15;97150.94;2093321;28;20239;-65
2022/10/07 12:56:41;;;;;;;12.38;5.68;;;;;;;19.76;62.10;97148.94;2083185;28;20193;-65
2022/10/07 12:57:49;;;;;;;14.75;5.32;;;;;;;19.84;61.88;97148.38;2084319;28;20208;-65
2022/10/07 13:00:24;;;;;;;17.05;6.78;;;;;;;19.74;62.81;97150.84;2092265;28;20223;-65
2022/10/07 13:02:06;;;;;;;14.90;6.35;;;;;;;19.58;63.06;97146.66;2090552;28;20228;-66
2022/10/07 13:03:44;;;;;;;14.13;5.78;;;;;;;19.56;62.87;97140.63;2077317;28;20224;-65
2022/10/07 13:29:27;;;;;;;21.75;11.98;;;;;;;19.10;65.13;97098.97;2090047;28;20315;-64
2022/10/07 13:30:37;;;;;;;15.40;5.93;;;;;;;19.09;65.32;97108.72;2089974;28;20637;-64
2022/10/07 13:31:39;;;;;;;10.40;5.55;;;;;;;19.37;64.10;97106.72;2081198;28;20291;-64
2022/10/07 13:32:41;;;;;;;13.00;5.40;;;;;;;19.51;63.87;97099.56;2097278;28;20208;-65
2022/10/07 13:33:43;;;;;;;13.77;5.70;;;;;;;19.57;63.73;97097.31;2101094;28;20200;-64
2022/10/07 13:34:52;;;;;;;7.97;5.50;;;;;;;18.76;65.45;97102.19;2090128;28;20215;-64
2022/10/07 13:36:13;;;;;;;14.18;6.35;;;;;;;18.73;66.09;97093.66;2090489;28;20204;-64
2022/10/07 13:37:28;;;;;;;14.80;6.05;;;;;;;18.25;67.51;97099.59;2086039;28;20254;-65
2022/10/07 13:38:29;;;;;;;18.25;6.60;;;;;;;18.20;67.63;97094.63;2101910;28;20228;-65
2022/10/07 13:39:30;;;;;;;24.90;7.25;;;;;;;18.09;68.09;97078.66;2094268;28;20211;-64
2022/10/07 13:40:35;;;;;;;16.40;7.20;;;;;;;18.51;67.22;97104.88;2092669;28;20226;-64
2022/10/07 13:41:38;;;;;;;15.63;6.63;;;;;;;18.29;67.19;97098.44;2092680;28;20309;-64
2022/10/07 13:42:40;;;;;;;14.85;6.28;;;;;;;18.42;66.76;97090.50;2092014;28;20255;-65
2022/10/07 13:43:43;;;;;;;13.68;6.07;;;;;;;18.74;65.47;97090.88;2092471;28;20239;-66
2022/10/07 13:44:44;;;;;;;12.13;6.00;;;;;;;18.83;65.58;97092.03;2092472;28;20192;-64
2022/10/07 13:45:46;;;;;;;17.02;6.90;;;;;;;18.73;66.21;97088.38;2090827;28;20216;-66
2022/10/07 13:46:57;;;;;;;19.10;6.35;;;;;;;19.08;65.13;97096.47;2082635;28;20208;-64
2022/10/07 13:47:59;;;;;;;11.75;6.10;;;;;;;18.91;65.73;97083.59;2099334;28;20639;-65
2022/10/07 13:49:02;;;;;;;21.13;6.85;;;;;;;19.05;65.13;97086.06;2100965;28;20637;-66
2022/10/07 13:50:04;;;;;;;16.05;7.07;;;;;;;18.35;66.27;97076.88;2092302;28;20238;-65
2022/10/07 13:51:06;;;;;;;20.35;7.20;;;;;;;18.49;66.55;97078.53;2090929;28;20203;-64
2022/10/07 13:52:20;;;;;;;15.98;6.40;;;;;;;18.72;66.61;97084.84;2085301;28;20629;-64
2022/10/07 13:53:26;;;;;;;19.00;6.07;;;;;;;19.04;65.42;97078.25;2099400;28;20245;-65
2022/10/07 13:54:30;;;;;;;16.33;6.85;;;;;;;18.58;66.44;97074.41;2093258;28;20253;-65
2022/10/07 13:55:34;;;;;;;13.52;6.50;;;;;;;18.67;66.18;97080.84;2090956;28;20251;-64
2022/10/07 13:56:40;;;;;;;10.25;6.43;;;;;;;18.56;66.62;97086.88;2092343;28;21026;-64
2022/10/07 13:57:43;;;;;;;11.80;5.40;;;;;;;18.56;66.68;97078.94;2092586;28;20243;-64
2022/10/07 13:58:45;;;;;;;16.92;6.00;;;;;;;18.16;67.64;97066.72;2091559;28;20230;-64
2022/10/07 13:59:48;;;;;;;12.05;6.68;;;;;;;18.59;67.04;97084.03;2089791;28;20295;-64
2022/10/07 14:00:49;;;;;;;12.45;6.90;;;;;;;18.80;65.54;97071.06;2091193;28;20200;-64